Pagina principale
METAR-TAF:

METAR-TAF

Aeroporti :

Mönchengladbach, Germania

latitudine: 51-13-49N, longitudine: 006-30-16E, altezza: 38 m

Osservazione

Il bollettino è stato emesso 48 minuti fa, alle 14:50 UTC
Vento 6 kt da sud/sud-est, variando fra est/sud-est e sud/sud-ovest
Temperature 31°C
Umidità 46%
Pressione 1017 hPa
Visibilità 10 km o più
nessuna nube inferiore a 1500 m e nessun cumulonembo

METAR: EDLN 241450Z 15006KT 110V210 CAVOK 31/18 Q1017

Ora: 17:38 (15:38 UTC)

Previsione

Il bollettino è stato emesso 1 ora e 38 minuti fa, alle 14:00 UTC
Previsione valida dal 24 alle 15 UTC al 24 alle 24 UTC
Vento 6 kt da sud-est
Visibilità 10 km o più
nessuna nube inferiore a 1500 m e nessun cumulonembo

TAF: EDLN 241400Z 2415/2424 13006KT CAVOK

Osservazioni e previsioni meteorologiche di più di 4000 aeroporti (messaggi METAR e TAF).

Le stazioni disponibili sono rappresentate dai dischi gialli e rossi sulla carta.

Puntare il mouse per vedere il nome della stazione.

Clicca sopra per visualizzare le osservazioni e previsioni meteorologiche.

Per cambiare la mappa : fare clic sui pulsanti verdi con una croce nera per ingrandire, il pulsante verde con un trattino per diminuire, o sulla freccia verde per le mappe adiacenti.


METAR-TAF: